Time;durP1;ratioP1;P1;durP2;ratioP2;P2;SDS_P1;SDS_P2;PMS_P1;PMS_P2;Temp;Humidity;BMP_temperature;BMP_pressure;BME280_temperature;BME280_humidity;BME280_pressure;Samples;Min_cycle;Max_cycle;Signal;HPM_P1;HPM_P2
2023/08/15 00:02:33;;;;;;;6.82;4.60;;;;;20.70;94222.00;;;;7393179;19;20176;-79
2023/08/15 00:05:01;;;;;;;9.43;5.35;;;;;20.70;94222.00;;;;7394536;19;20646;-79
2023/08/15 00:07:36;;;;;;;11.00;4.50;;;;;20.50;94202.00;;;;7396917;19;20507;-78
2023/08/15 00:10:04;;;;;;;5.07;4.18;;;;;20.40;94210.00;;;;7395540;19;20137;-80
2023/08/15 00:12:39;;;;;;;7.93;4.32;;;;;20.40;94201.00;;;;7395525;19;20165;-80
2023/08/15 00:15:08;;;;;;;6.82;4.22;;;;;20.30;94196.00;;;;7396004;19;20160;-80
2023/08/15 00:17:43;;;;;;;8.43;4.28;;;;;20.30;94187.00;;;;7394442;19;20144;-81
2023/08/15 00:20:13;;;;;;;7.88;4.20;;;;;20.30;94194.00;;;;7397624;19;20200;-80
2023/08/15 00:22:48;;;;;;;8.75;4.65;;;;;20.20;94182.00;;;;7392532;19;20139;-81
2023/08/15 00:25:16;;;;;;;5.32;4.10;;;;;20.20;94185.00;;;;7395401;19;20129;-80
2023/08/15 00:27:51;;;;;;;5.72;4.13;;;;;20.00;94190.00;;;;7396955;19;20188;-79
2023/08/15 00:30:25;;;;;;;6.28;4.00;;;;;20.10;94180.00;;;;7393034;19;20166;-80
2023/08/15 00:32:52;;;;;;;7.22;3.80;;;;;20.20;94172.00;;;;7396808;19;20135;-79
2023/08/15 00:35:26;;;;;;;5.53;4.15;;;;;20.40;94173.00;;;;7397376;19;20495;-80
2023/08/15 00:37:54;;;;;;;5.93;3.90;;;;;20.30;94178.00;;;;7393699;19;20133;-81
2023/08/15 00:40:29;;;;;;;12.10;4.68;;;;;20.30;94177.00;;;;7396194;19;20489;-80
2023/08/15 00:43:03;;;;;;;7.28;4.57;;;;;20.40;94169.00;;;;7394492;19;20579;-80
2023/08/15 00:45:41;;;;;;;5.40;4.30;;;;;20.50;94169.00;;;;7393732;19;20168;-81
2023/08/15 00:48:16;;;;;;;6.32;4.25;;;;;20.40;94165.00;;;;7394464;19;20144;-80
2023/08/15 00:50:50;;;;;;;6.95;4.22;;;;;20.50;94168.00;;;;7392937;19;20149;-79
2023/08/15 00:53:27;;;;;;;4.45;4.00;;;;;20.50;94177.00;;;;7392549;19;20129;-80
2023/08/15 00:56:01;;;;;;;6.25;4.38;;;;;20.40;94176.00;;;;7393919;19;20144;-80
2023/08/15 00:58:36;;;;;;;10.07;3.90;;;;;20.20;94169.00;;;;7394368;19;20144;-79
2023/08/15 01:01:17;;;;;;;5.88;3.80;;;;;20.30;94173.00;;;;7392427;19;20502;-80
2023/08/15 01:04:00;;;;;;;5.88;3.95;;;;;20.10;94162.00;;;;7391952;19;20172;-78
2023/08/15 01:06:35;;;;;;;5.65;4.07;;;;;20.40;94168.00;;;;7395846;19;20140;-79
2023/08/15 01:09:10;;;;;;;5.32;4.22;;;;;20.00;94164.00;;;;7395765;19;20184;-79
2023/08/15 01:11:53;;;;;;;5.57;4.00;;;;;20.00;94167.00;;;;7394859;19;20132;-80
2023/08/15 01:14:52;;;;;;;5.97;4.40;;;;;19.90;94166.00;;;;7394907;19;20136;-81
2023/08/15 01:17:31;;;;;;;6.60;4.22;;;;;19.90;94171.00;;;;7393223;19;20147;-79
2023/08/15 01:20:12;;;;;;;7.18;4.80;;;;;20.00;94169.00;;;;7395161;19;20145;-80
2023/08/15 01:22:50;;;;;;;6.88;4.70;;;;;20.10;94172.00;;;;7392551;19;20259;-79
2023/08/15 01:25:26;;;;;;;5.93;4.40;;;;;20.10;94166.00;;;;7393057;19;20640;-80
2023/08/15 01:28:00;;;;;;;8.95;4.82;;;;;20.10;94171.00;;;;7394409;19;20144;-80
2023/08/15 01:30:41;;;;;;;6.20;4.30;;;;;20.10;94166.00;;;;7394038;19;20179;-82
2023/08/15 01:33:33;;;;;;;6.63;4.72;;;;;20.00;94178.00;;;;7396011;19;20204;-78
2023/08/15 01:36:22;;;;;;;7.50;5.20;;;;;20.00;94166.00;;;;7393823;19;20147;-79
2023/08/15 01:38:59;;;;;;;7.55;4.50;;;;;20.10;94172.00;;;;7393708;19;20152;-82
2023/08/15 01:41:37;;;;;;;7.72;4.88;;;;;20.20;94162.00;;;;7395328;19;20151;-80
2023/08/15 01:44:08;;;;;;;11.40;4.35;;;;;20.20;94157.00;;;;7396070;19;20133;-80
2023/08/15 01:46:46;;;;;;;6.38;5.05;;;;;20.20;94157.00;;;;7393284;19;20550;-80
2023/08/15 01:49:14;;;;;;;5.38;4.28;;;;;20.40;94162.00;;;;7396653;19;20160;-78
2023/08/15 01:51:49;;;;;;;7.72;4.82;;;;;20.40;94164.00;;;;7393207;19;20132;-80
2023/08/15 01:54:24;;;;;;;6.57;4.70;;;;;20.50;94162.00;;;;7393667;19;20125;-80
2023/08/15 01:56:59;;;;;;;7.15;4.40;;;;;20.60;94154.00;;;;7394175;19;20147;-80
2023/08/15 01:59:26;;;;;;;5.88;4.43;;;;;20.50;94152.00;;;;7392740;19;20145;-81
2023/08/15 02:02:06;;;;;;;9.88;4.35;;;;;20.60;94147.00;;;;7391140;19;20203;-81
2023/08/15 02:04:40;;;;;;;4.93;4.43;;;;;20.70;94160.00;;;;7398838;19;20191;-80
2023/08/15 02:07:15;;;;;;;5.97;4.63;;;;;20.50;94158.00;;;;7400121;19;20145;-80
2023/08/15 02:09:50;;;;;;;10.23;4.30;;;;;20.60;94158.00;;;;7401079;19;20129;-81
2023/08/15 02:12:26;;;;;;;6.55;4.22;;;;;20.60;94149.00;;;;7401291;19;20211;-78
2023/08/15 02:15:04;;;;;;;6.63;5.10;;;;;20.60;94152.00;;;;7401226;19;20137;-79
2023/08/15 02:17:40;;;;;;;8.75;4.35;;;;;20.70;94154.00;;;;7399455;19;20144;-80
2023/08/15 02:20:14;;;;;;;7.38;4.45;;;;;20.80;94151.00;;;;7399271;19;20149;-80
2023/08/15 02:22:47;;;;;;;5.85;4.30;;;;;20.90;94150.00;;;;7399834;19;20595;-78
2023/08/15 02:25:22;;;;;;;6.13;4.68;;;;;20.90;94153.00;;;;7402084;19;20597;-81
2023/08/15 02:27:57;;;;;;;5.18;4.28;;;;;20.80;94161.00;;;;7399677;19;20615;-82
2023/08/15 02:30:37;;;;;;;7.38;4.32;;;;;20.80;94158.00;;;;7401699;19;20159;-82
2023/08/15 02:33:12;;;;;;;5.28;4.25;;;;;20.80;94147.00;;;;7400427;19;20614;-80
2023/08/15 02:35:43;;;;;;;5.78;4.40;;;;;20.90;94147.00;;;;7397317;19;20145;-78
2023/08/15 02:38:17;;;;;;;7.05;5.00;;;;;20.80;94149.00;;;;7400358;19;20192;-79
2023/08/15 02:40:45;;;;;;;7.70;4.32;;;;;20.90;94158.00;;;;7398857;19;20133;-80
2023/08/15 02:43:20;;;;;;;8.35;4.60;;;;;20.80;94155.00;;;;7398554;19;20139;-80
2023/08/15 02:45:57;;;;;;;5.47;4.30;;;;;20.70;94151.00;;;;7400534;19;20666;-81
2023/08/15 02:48:31;;;;;;;7.97;4.25;;;;;21.00;94152.00;;;;7401339;19;20159;-80
2023/08/15 02:50:58;;;;;;;6.03;4.25;;;;;21.10;94153.00;;;;7398382;19;20157;-81
2023/08/15 02:53:32;;;;;;;9.75;4.30;;;;;21.10;94148.00;;;;7400276;19;20157;-80
2023/08/15 02:56:00;;;;;;;6.07;4.38;;;;;21.40;94144.00;;;;7398919;19;20164;-79
2023/08/15 02:58:29;;;;;;;8.93;4.47;;;;;21.40;94142.00;;;;7400306;19;20124;-80
2023/08/15 03:01:04;;;;;;;10.00;4.28;;;;;21.40;94133.00;;;;7398336;19;20144;-79
2023/08/15 03:03:45;;;;;;;7.13;4.50;;;;;21.40;94135.00;;;;7397195;19;20581;-80
2023/08/15 03:06:21;;;;;;;5.55;3.90;;;;;21.30;94128.00;;;;7397309;19;20646;-80
2023/08/15 03:08:51;;;;;;;5.60;4.57;;;;;21.10;94142.00;;;;7399296;19;20575;-79
2023/08/15 03:11:26;;;;;;;7.63;3.97;;;;;21.00;94142.00;;;;7399800;19;20136;-80
2023/08/15 03:14:00;;;;;;;5.03;3.88;;;;;21.40;94133.00;;;;7396731;19;20145;-81
2023/08/15 03:16:35;;;;;;;7.47;4.18;;;;;21.60;94134.00;;;;7398946;19;20136;-75
2023/08/15 03:19:02;;;;;;;6.57;4.00;;;;;21.60;94135.00;;;;7398703;19;20149;-77
2023/08/15 03:21:39;;;;;;;7.70;4.10;;;;;21.50;94133.00;;;;7395908;19;20157;-74
2023/08/15 03:24:16;;;;;;;8.10;4.35;;;;;21.50;94137.00;;;;7397851;19;20141;-77
2023/08/15 03:26:50;;;;;;;8.93;4.13;;;;;21.50;94138.00;;;;7400415;19;20128;-76
2023/08/15 03:29:24;;;;;;;7.28;4.20;;;;;21.50;94144.00;;;;7396937;19;20268;-75
2023/08/15 03:31:58;;;;;;;6.32;3.95;;;;;21.50;94144.00;;;;7398378;19;20133;-78
2023/08/15 03:34:33;;;;;;;6.10;3.78;;;;;21.50;94148.00;;;;7396834;19;20503;-78
2023/08/15 03:37:08;;;;;;;6.93;3.70;;;;;21.40;94146.00;;;;7396399;19;20156;-75
2023/08/15 03:39:44;;;;;;;10.10;4.05;;;;;21.40;94148.00;;;;7397542;19;20149;-75
2023/08/15 03:42:18;;;;;;;8.32;3.88;;;;;21.40;94147.00;;;;7396229;19;20132;-77
2023/08/15 03:44:46;;;;;;;6.88;3.55;;;;;21.40;94156.00;;;;7397575;19;20212;-76
2023/08/15 03:47:20;;;;;;;7.82;4.03;;;;;21.20;94164.00;;;;7394815;19;20154;-77
2023/08/15 03:49:48;;;;;;;7.28;4.20;;;;;21.10;94164.00;;;;7397365;19;20153;-76
2023/08/15 03:52:16;;;;;;;7.38;3.80;;;;;20.90;94162.00;;;;7395893;19;20144;-76
2023/08/15 03:54:50;;;;;;;6.03;3.67;;;;;20.90;94167.00;;;;7395590;19;20622;-75
2023/08/15 03:57:18;;;;;;;4.88;3.75;;;;;20.90;94163.00;;;;7398814;19;20575;-75
2023/08/15 03:59:52;;;;;;;5.57;3.53;;;;;20.90;94163.00;;;;7397302;19;20584;-78
2023/08/15 04:02:27;;;;;;;8.15;4.10;;;;;20.80;94156.00;;;;7393876;19;20192;-77
2023/08/15 04:05:07;;;;;;;7.60;3.90;;;;;20.80;94168.00;;;;7395593;19;20671;-78
2023/08/15 04:07:42;;;;;;;7.25;4.50;;;;;20.60;94186.00;;;;7395086;19;20137;-75
2023/08/15 04:10:17;;;;;;;7.55;4.35;;;;;20.50;94184.00;;;;7396266;19;20515;-76
2023/08/15 04:12:51;;;;;;;7.97;4.65;;;;;20.40;94183.00;;;;7396256;19;20147;-77
2023/08/15 04:15:26;;;;;;;7.63;4.20;;;;;20.40;94189.00;;;;7396925;19;20165;-76
2023/08/15 04:17:54;;;;;;;5.85;4.20;;;;;20.40;94182.00;;;;7395831;19;20630;-77
2023/08/15 04:20:28;;;;;;;7.00;4.45;;;;;20.30;94181.00;;;;7395762;19;20141;-75
2023/08/15 04:22:57;;;;;;;10.63;4.20;;;;;20.20;94184.00;;;;7393615;19;20205;-78
2023/08/15 04:25:34;;;;;;;11.80;4.57;;;;;20.30;94192.00;;;;7395244;19;20151;-76
2023/08/15 04:28:08;;;;;;;6.18;4.13;;;;;20.30;94202.00;;;;7396885;19;20148;-77
2023/08/15 04:30:44;;;;;;;6.25;4.07;;;;;20.30;94201.00;;;;7394868;19;20247;-77
2023/08/15 04:33:14;;;;;;;11.75;4.80;;;;;20.40;94204.00;;;;7396666;19;20235;-76
2023/08/15 04:35:48;;;;;;;8.32;4.30;;;;;20.50;94214.00;;;;7394508;19;20156;-77
2023/08/15 04:38:16;;;;;;;10.10;5.13;;;;;20.60;94207.00;;;;7394648;19;20179;-77
2023/08/15 04:40:50;;;;;;;9.93;4.50;;;;;20.60;94211.00;;;;7392493;19;20132;-76
2023/08/15 04:43:17;;;;;;;7.53;4.60;;;;;20.60;94217.00;;;;7394967;19;20496;-77
2023/08/15 04:45:52;;;;;;;7.00;4.55;;;;;20.80;94226.00;;;;7392110;19;20181;-76
2023/08/15 04:48:20;;;;;;;12.68;5.10;;;;;21.00;94217.00;;;;7396908;19;20216;-75
2023/08/15 04:50:54;;;;;;;8.23;4.70;;;;;21.00;94229.00;;;;7393826;19;20138;-77
2023/08/15 04:53:28;;;;;;;9.52;4.53;;;;;20.90;94222.00;;;;7395207;19;20137;-78
2023/08/15 04:55:55;;;;;;;12.88;5.32;;;;;21.20;94224.00;;;;7394250;19;20511;-77
2023/08/15 04:58:30;;;;;;;9.27;5.97;;;;;21.20;94232.00;;;;7394364;19;20498;-77
2023/08/15 05:00:58;;;;;;;8.52;4.93;;;;;21.20;94237.00;;;;7392581;19;20534;-77
2023/08/15 05:03:33;;;;;;;14.63;5.20;;;;;21.30;94233.00;;;;7396399;19;20132;-77
2023/08/15 05:06:07;;;;;;;6.30;4.65;;;;;21.40;94228.00;;;;7391025;19;20168;-77
2023/08/15 05:08:44;;;;;;;8.73;4.85;;;;;21.50;94241.00;;;;7393123;19;20136;-78
2023/08/15 05:11:19;;;;;;;7.00;4.80;;;;;21.50;94241.00;;;;7393549;19;20510;-77
2023/08/15 05:13:47;;;;;;;10.52;4.90;;;;;21.60;94233.00;;;;7394172;19;20137;-78
2023/08/15 05:16:22;;;;;;;7.85;5.15;;;;;21.60;94241.00;;;;7394782;19;20172;-78
2023/08/15 05:18:51;;;;;;;8.48;5.57;;;;;21.50;94252.00;;;;7394032;19;20160;-78
2023/08/15 05:21:26;;;;;;;10.77;5.03;;;;;21.50;94259.00;;;;7394302;19;20140;-78
2023/08/15 05:23:53;;;;;;;7.03;5.00;;;;;21.60;94250.00;;;;7392670;19;20120;-77
2023/08/15 05:26:28;;;;;;;7.30;5.07;;;;;21.50;94251.00;;;;7394674;19;20655;-79
2023/08/15 05:28:57;;;;;;;5.82;4.65;;;;;21.60;94250.00;;;;7392168;19;20494;-77
2023/08/15 05:31:24;;;;;;;10.02;5.50;;;;;21.70;94252.00;;;;7394853;19;20503;-78
2023/08/15 05:33:58;;;;;;;11.77;4.90;;;;;21.90;94250.00;;;;7394373;19;20121;-76
2023/08/15 05:36:27;;;;;;;11.77;5.05;;;;;22.00;94259.00;;;;7393205;19;20623;-77
2023/08/15 05:39:04;;;;;;;7.47;4.82;;;;;22.00;94257.00;;;;7399824;19;20146;-77
2023/08/15 05:41:32;;;;;;;5.75;5.18;;;;;21.90;94249.00;;;;7401032;19;20164;-77
2023/08/15 05:44:06;;;;;;;8.82;5.47;;;;;22.00;94253.00;;;;7397902;19;20150;-76
2023/08/15 05:46:41;;;;;;;8.38;5.30;;;;;22.20;94251.00;;;;7401195;19;20136;-78
2023/08/15 05:49:16;;;;;;;7.63;4.88;;;;;22.30;94251.00;;;;7399594;19;20124;-76
2023/08/15 05:51:44;;;;;;;6.93;5.57;;;;;22.50;94246.00;;;;7382294;19;20599;-77
2023/08/15 05:54:19;;;;;;;9.13;5.65;;;;;22.80;94259.00;;;;7387037;19;20140;-79
2023/08/15 05:56:46;;;;;;;8.07;6.07;;;;;22.90;94255.00;;;;7386596;19;20137;-75
2023/08/15 05:59:20;;;;;;;9.40;6.13;;;;;23.10;94255.00;;;;7385233;19;20161;-77
2023/08/15 06:01:48;;;;;;;10.00;6.63;;;;;23.40;94249.00;;;;7387330;19;20204;-76
2023/08/15 06:04:22;;;;;;;12.10;7.00;;;;;23.40;94248.00;;;;7389327;19;20234;-76
2023/08/15 06:07:03;;;;;;;10.38;6.40;;;;;23.60;94249.00;;;;7387049;19;20152;-76
2023/08/15 06:09:37;;;;;;;6.82;5.72;;;;;23.60;94249.00;;;;7387772;19;20621;-77
2023/08/15 06:12:11;;;;;;;9.45;5.47;;;;;23.80;94262.00;;;;7387623;19;20583;-76
2023/08/15 06:14:45;;;;;;;8.02;6.07;;;;;24.00;94261.00;;;;7389440;19;20125;-75
2023/08/15 06:17:20;;;;;;;8.73;5.40;;;;;24.30;94261.00;;;;7388300;19;20163;-75
2023/08/15 06:19:54;;;;;;;6.53;4.70;;;;;24.40;94260.00;;;;7388232;19;20117;-76
2023/08/15 06:22:29;;;;;;;9.63;5.30;;;;;24.70;94266.00;;;;7383657;19;20598;-76
2023/08/15 06:25:04;;;;;;;7.22;4.65;;;;;25.00;94258.00;;;;7385561;19;20197;-77
2023/08/15 06:27:38;;;;;;;8.23;4.72;;;;;25.20;94269.00;;;;7387345;19;20584;-75
2023/08/15 06:30:08;;;;;;;9.07;4.40;;;;;25.20;94272.00;;;;7386287;19;20151;-77
2023/08/15 06:32:44;;;;;;;8.32;5.28;;;;;25.30;94272.00;;;;7387854;19;20120;-76
2023/08/15 06:35:12;;;;;;;6.30;4.65;;;;;25.30;94266.00;;;;7378783;19;20512;-78
2023/08/15 06:37:46;;;;;;;7.70;4.50;;;;;25.30;94267.00;;;;7386421;19;20178;-75
2023/08/15 06:40:14;;;;;;;7.18;4.80;;;;;25.10;94288.00;;;;7386621;19;20155;-75
2023/08/15 06:42:48;;;;;;;10.82;4.88;;;;;25.00;94283.00;;;;7385737;19;20498;-76
2023/08/15 06:45:16;;;;;;;8.43;4.18;;;;;24.90;94290.00;;;;7386476;19;20136;-75
2023/08/15 06:47:50;;;;;;;7.32;4.55;;;;;24.80;94297.00;;;;7386213;19;20152;-79
2023/08/15 06:50:19;;;;;;;8.73;4.78;;;;;24.90;94290.00;;;;7384784;19;20172;-80
2023/08/15 06:52:54;;;;;;;6.95;4.68;;;;;24.80;94303.00;;;;7386150;19;20136;-81
2023/08/15 06:55:28;;;;;;;8.18;4.47;;;;;24.60;94317.00;;;;7385467;19;20171;-80
2023/08/15 06:58:03;;;;;;;6.65;4.50;;;;;24.50;94318.00;;;;7386693;19;20140;-80
2023/08/15 07:00:38;;;;;;;7.88;4.45;;;;;24.50;94313.00;;;;7386564;19;20137;-82
2023/08/15 07:03:15;;;;;;;5.45;4.38;;;;;25.10;94314.00;;;;7386704;19;20209;-80
2023/08/15 07:05:50;;;;;;;5.00;4.05;;;;;25.50;94311.00;;;;7384129;19;20180;-82
2023/08/15 07:08:27;;;;;;;8.30;4.43;;;;;25.50;94304.00;;;;7385757;19;20121;-82
2023/08/15 07:10:57;;;;;;;5.38;4.20;;;;;25.20;94301.00;;;;7388759;19;20232;-83
2023/08/15 07:13:32;;;;;;;10.75;5.20;;;;;25.20;94307.00;;;;7387778;19;20129;-79
2023/08/15 07:16:08;;;;;;;7.65;5.00;;;;;25.10;94318.00;;;;7386481;19;20140;-82
2023/08/15 07:18:43;;;;;;;13.25;5.43;;;;;25.10;94319.00;;;;7386434;19;20152;-78
2023/08/15 07:21:11;;;;;;;7.32;5.30;;;;;25.10;94313.00;;;;7384010;19;20514;-81
2023/08/15 07:23:40;;;;;;;9.38;5.00;;;;;24.90;94309.00;;;;7390838;19;20165;-82
2023/08/15 07:26:14;;;;;;;5.95;5.32;;;;;24.70;94314.00;;;;7390981;19;20128;-81
2023/08/15 07:28:48;;;;;;;10.13;5.20;;;;;24.70;94307.00;;;;7386593;19;20138;-80
2023/08/15 07:31:24;;;;;;;6.03;4.95;;;;;24.60;94314.00;;;;7386831;19;20170;-78
2023/08/15 07:33:59;;;;;;;9.80;4.85;;;;;24.50;94322.00;;;;7387538;19;20601;-81
2023/08/15 07:36:35;;;;;;;11.70;5.10;;;;;24.10;94324.00;;;;7381156;19;20148;-79
2023/08/15 07:39:09;;;;;;;6.75;5.22;;;;;24.00;94339.00;;;;7384814;19;20212;-80
2023/08/15 07:41:37;;;;;;;12.32;5.75;;;;;23.80;94340.00;;;;7386290;19;20144;-81
2023/08/15 07:44:13;;;;;;;7.80;5.38;;;;;23.80;94345.00;;;;7383387;19;20591;-80
2023/08/15 07:46:48;;;;;;;6.15;4.80;;;;;23.90;94338.00;;;;7383881;19;20149;-79
2023/08/15 07:49:22;;;;;;;8.48;5.40;;;;;24.10;94333.00;;;;7385887;19;20141;-81
2023/08/15 07:51:58;;;;;;;11.30;5.03;;;;;24.20;94329.00;;;;7383982;19;20176;-80
2023/08/15 07:54:26;;;;;;;8.02;5.20;;;;;24.40;94317.00;;;;7385660;19;20534;-78
2023/08/15 07:57:00;;;;;;;9.23;5.88;;;;;24.50;94311.00;;;;7383582;19;20222;-81
2023/08/15 07:59:35;;;;;;;6.65;5.55;;;;;24.60;94313.00;;;;7383651;19;20153;-78
2023/08/15 08:02:10;;;;;;;9.40;5.55;;;;;24.60;94316.00;;;;7384685;19;20160;-81
2023/08/15 08:04:44;;;;;;;6.85;5.88;;;;;24.00;94318.00;;;;7382729;19;20264;-81
2023/08/15 08:07:26;;;;;;;7.43;5.22;;;;;23.50;94319.00;;;;7386056;19;20676;-80
2023/08/15 08:10:02;;;;;;;9.52;6.40;;;;;23.50;94322.00;;;;7384051;19;20165;-80
2023/08/15 08:12:30;;;;;;;10.10;6.13;;;;;23.30;94310.00;;;;7385803;19;20133;-79
2023/08/15 08:15:04;;;;;;;6.93;5.70;;;;;23.30;94320.00;;;;7385601;19;20167;-81
2023/08/15 08:17:32;;;;;;;8.82;6.05;;;;;23.20;94311.00;;;;7381568;19;21415;-79
2023/08/15 08:20:12;;;;;;;8.57;6.18;;;;;23.40;94319.00;;;;7384617;19;20126;-82
2023/08/15 08:22:41;;;;;;;8.52;5.60;;;;;23.60;94318.00;;;;7383505;19;20124;-82
2023/08/15 08:25:23;;;;;;;8.23;5.55;;;;;24.10;94308.00;;;;7383370;19;20502;-81
2023/08/15 08:27:51;;;;;;;8.82;5.88;;;;;24.80;94316.00;;;;7384184;19;20139;-82
2023/08/15 08:30:26;;;;;;;7.05;5.18;;;;;25.00;94308.00;;;;7384950;19;20215;-78
2023/08/15 08:33:05;;;;;;;10.02;5.80;;;;;25.00;94309.00;;;;7385383;19;20132;-81
2023/08/15 08:35:40;;;;;;;8.73;5.75;;;;;25.20;94305.00;;;;7384335;19;20724;-79
2023/08/15 08:38:14;;;;;;;8.60;5.30;;;;;25.20;94315.00;;;;7385015;19;20585;-78
2023/08/15 08:40:43;;;;;;;10.73;6.50;;;;;25.00;94315.00;;;;7385692;19;20129;-79
2023/08/15 08:43:12;;;;;;;8.45;5.38;;;;;24.60;94319.00;;;;7385130;19;20160;-78
2023/08/15 08:45:51;;;;;;;8.18;4.97;;;;;24.60;94322.00;;;;7383107;19;20612;-80
2023/08/15 08:48:21;;;;;;;8.20;5.95;;;;;24.90;94306.00;;;;7384950;19;20488;-81
2023/08/15 08:50:57;;;;;;;8.30;4.53;;;;;25.10;94318.00;;;;7381100;19;20160;-81
2023/08/15 08:53:24;;;;;;;6.55;4.35;;;;;25.10;94316.00;;;;7381944;19;20277;-79
2023/08/15 08:56:00;;;;;;;7.22;4.85;;;;;25.30;94325.00;;;;7385426;19;20147;-81
2023/08/15 08:58:30;;;;;;;10.07;4.28;;;;;25.20;94318.00;;;;7382872;19;20655;-81
2023/08/15 09:01:05;;;;;;;6.70;3.95;;;;;25.20;94320.00;;;;7381736;19;20203;-82
2023/08/15 09:03:34;;;;;;;8.93;4.13;;;;;25.20;94319.00;;;;7384145;19;20136;-82
2023/08/15 09:06:14;;;;;;;6.78;3.50;;;;;25.40;94323.00;;;;7383263;19;20164;-84
2023/08/15 09:08:44;;;;;;;9.27;3.47;;;;;25.40;94326.00;;;;7384658;19;20137;-85
2023/08/15 09:11:21;;;;;;;8.35;3.67;;;;;25.00;94335.00;;;;7383804;19;20485;-80
2023/08/15 09:13:50;;;;;;;13.38;4.18;;;;;25.20;94298.00;;;;7378392;19;20148;-79
2023/08/15 09:16:24;;;;;;;4.70;3.10;;;;;25.80;94309.00;;;;7380702;19;20729;-76
2023/08/15 09:18:52;;;;;;;8.38;3.83;;;;;26.30;94314.00;;;;7381224;19;20600;-75
2023/08/15 09:21:28;;;;;;;7.43;3.42;;;;;26.70;94291.00;;;;7381756;19;20614;-76
2023/08/15 09:24:04;;;;;;;6.47;3.38;;;;;27.20;94289.00;;;;7376686;19;20155;-79
2023/08/15 09:26:39;;;;;;;4.45;3.20;;;;;27.40;94295.00;;;;7377960;19;20151;-78
2023/08/15 09:29:15;;;;;;;9.77;3.38;;;;;27.60;94305.00;;;;7376158;19;20522;-79
2023/08/15 09:31:44;;;;;;;7.50;3.28;;;;;27.00;94302.00;;;;7380812;19;20643;-81
2023/08/15 09:34:19;;;;;;;7.18;3.78;;;;;26.80;94304.00;;;;7383518;19;20218;-80
2023/08/15 09:36:47;;;;;;;7.30;3.13;;;;;27.00;94316.00;;;;7382493;19;20137;-81
2023/08/15 09:39:22;;;;;;;5.10;3.25;;;;;26.90;94325.00;;;;7381301;19;20137;-79
2023/08/15 09:41:56;;;;;;;7.65;3.05;;;;;26.40;94326.00;;;;7380176;19;20152;-79
2023/08/15 09:44:32;;;;;;;5.75;3.00;;;;;26.20;94336.00;;;;7381211;19;20167;-80
2023/08/15 09:47:01;;;;;;;5.93;3.25;;;;;25.90;94336.00;;;;7383521;19;20255;-79
2023/08/15 09:49:35;;;;;;;5.75;3.10;;;;;25.80;94347.00;;;;7381638;19;20140;-77
2023/08/15 09:52:04;;;;;;;4.25;2.70;;;;;25.70;94339.00;;;;7380176;19;20132;-76
2023/08/15 09:54:41;;;;;;;5.72;2.80;;;;;25.50;94343.00;;;;7381101;19;20662;-78
2023/08/15 09:57:09;;;;;;;7.30;3.38;;;;;25.50;94346.00;;;;7382089;19;20133;-79
2023/08/15 09:59:44;;;;;;;5.65;3.00;;;;;25.50;94356.00;;;;7381810;19;20136;-80
2023/08/15 10:02:21;;;;;;;9.07;3.30;;;;;25.60;94359.00;;;;7381614;19;20615;-80
2023/08/15 10:05:06;;;;;;;5.65;3.30;;;;;25.50;94367.00;;;;7379670;19;20523;-77
2023/08/15 10:07:34;;;;;;;4.00;2.60;;;;;25.30;94366.00;;;;7380937;19;20152;-78
2023/08/15 10:10:10;;;;;;;6.43;3.13;;;;;25.00;94379.00;;;;7381252;19;20140;-78
2023/08/15 10:12:40;;;;;;;6.93;2.60;;;;;25.10;94380.00;;;;7381724;19;20216;-77
2023/08/15 10:15:14;;;;;;;5.63;3.13;;;;;25.20;94380.00;;;;7381153;19;20136;-78
2023/08/15 10:17:50;;;;;;;5.13;3.28;;;;;25.40;94384.00;;;;7381963;19;20152;-78
2023/08/15 10:20:20;;;;;;;7.90;3.35;;;;;25.70;94372.00;;;;7381924;19;20148;-78
2023/08/15 10:22:57;;;;;;;4.00;2.60;;;;;26.30;94364.00;;;;7378005;19;20125;-78
2023/08/15 10:25:38;;;;;;;3.47;2.58;;;;;26.90;94356.00;;;;7387572;19;20611;-78
2023/08/15 10:28:11;;;;;;;6.15;2.60;;;;;27.60;94347.00;;;;7386419;19;20572;-79
2023/08/15 10:30:46;;;;;;;6.78;2.72;;;;;28.30;94365.00;;;;7387962;19;20121;-78
2023/08/15 10:33:24;;;;;;;4.45;2.47;;;;;27.40;94368.00;;;;7385815;19;20140;-79
2023/08/15 10:35:54;;;;;;;3.90;2.60;;;;;27.50;94384.00;;;;7389031;19;20140;-80
2023/08/15 10:38:30;;;;;;;11.25;3.20;;;;;27.20;94381.00;;;;7388716;19;20599;-82
2023/08/15 10:41:03;;;;;;;5.47;3.00;;;;;27.10;94383.00;;;;7389837;19;20224;-80
2023/08/15 10:43:37;;;;;;;5.10;2.97;;;;;27.30;94367.00;;;;7390163;19;20145;-79
2023/08/15 10:46:07;;;;;;;5.25;3.22;;;;;28.00;94366.00;;;;7387484;19;20156;-75
2023/08/15 10:48:47;;;;;;;9.60;2.95;;;;;28.20;94368.00;;;;7386985;19;20155;-78
2023/08/15 10:51:31;;;;;;;8.48;3.10;;;;;28.60;94376.00;;;;7386105;19;20125;-77
2023/08/15 10:54:14;;;;;;;7.53;3.30;;;;;28.50;94344.00;;;;7384925;19;20203;-81
2023/08/15 10:56:50;;;;;;;6.68;3.03;;;;;28.70;94367.00;;;;7386092;19;20148;-76
2023/08/15 10:59:28;;;;;;;4.63;3.00;;;;;28.60;94325.00;;;;7388416;19;20653;-80
2023/08/15 11:01:57;;;;;;;4.53;2.72;;;;;27.80;94355.00;;;;7387049;19;20793;-75
2023/08/15 11:04:47;;;;;;;5.95;2.80;;;;;27.20;94379.00;;;;7381878;19;20152;-77
2023/08/15 11:07:27;;;;;;;6.25;2.22;;;;;26.80;94387.00;;;;7385157;19;20212;-78
2023/08/15 11:10:06;;;;;;;5.22;2.50;;;;;27.30;94355.00;;;;7385769;19;20511;-76
2023/08/15 11:12:36;;;;;;;5.35;2.53;;;;;27.90;94353.00;;;;7384191;19;20500;-79
2023/08/15 11:15:10;;;;;;;6.80;2.63;;;;;27.60;94368.00;;;;7385413;19;20595;-76
2023/08/15 11:17:38;;;;;;;6.25;2.53;;;;;27.70;94370.00;;;;7387224;19;20657;-76
2023/08/15 11:20:14;;;;;;;5.00;2.42;;;;;27.50;94371.00;;;;7385377;19;20448;-76
2023/08/15 11:22:57;;;;;;;7.03;3.30;;;;;27.70;94372.00;;;;7384919;19;20144;-74
2023/08/15 11:25:32;;;;;;;5.88;2.63;;;;;27.20;94377.00;;;;7383463;19;20457;-75
2023/08/15 11:28:06;;;;;;;5.38;2.90;;;;;27.40;94375.00;;;;7384302;19;20140;-77
2023/08/15 11:30:41;;;;;;;5.30;3.03;;;;;27.30;94372.00;;;;7385485;19;20142;-79
2023/08/15 11:33:17;;;;;;;6.90;3.10;;;;;27.80;94367.00;;;;7386267;19;20151;-77
2023/08/15 11:35:51;;;;;;;3.97;2.50;;;;;28.70;94370.00;;;;7382888;19;20128;-79
2023/08/15 11:38:20;;;;;;;3.95;2.88;;;;;28.60;94363.00;;;;7384385;19;20507;-78
2023/08/15 11:40:58;;;;;;;5.15;3.05;;;;;28.20;94361.00;;;;7384562;19;20128;-79
2023/08/15 11:43:34;;;;;;;6.55;3.13;;;;;28.30;94355.00;;;;7381868;19;20718;-78
2023/08/15 11:46:10;;;;;;;4.97;2.92;;;;;29.20;94352.00;;;;7381445;19;21367;-78
2023/08/15 11:48:45;;;;;;;5.95;3.10;;;;;29.90;94383.00;;;;7381246;19;20136;-80
2023/08/15 11:51:20;;;;;;;3.63;2.90;;;;;29.70;94375.00;;;;7382512;19;20603;-80
2023/08/15 11:53:56;;;;;;;6.75;3.05;;;;;28.20;94380.00;;;;7385141;19;20132;-79
2023/08/15 11:56:24;;;;;;;5.07;3.40;;;;;27.80;94375.00;;;;7380856;19;20125;-79
2023/08/15 11:59:14;;;;;;;9.90;3.47;;;;;27.10;94391.00;;;;7385542;19;20156;-81
2023/08/15 12:01:51;;;;;;;7.90;3.22;;;;;28.20;94367.00;;;;7387287;19;20629;-82
2023/08/15 12:04:32;;;;;;;3.92;3.35;;;;;28.50;94393.00;;;;7388913;19;20144;-81
2023/08/15 12:07:09;;;;;;;7.82;3.20;;;;;26.80;94393.00;;;;7385692;19;20133;-81
2023/08/15 12:09:48;;;;;;;7.50;3.35;;;;;27.10;94400.00;;;;7387549;19;20215;-79
2023/08/15 12:12:24;;;;;;;7.78;3.28;;;;;27.30;94398.00;;;;7386171;19;20128;-82
2023/08/15 12:14:59;;;;;;;5.13;3.53;;;;;27.90;94390.00;;;;7381675;19;20605;-81
2023/08/15 12:17:27;;;;;;;6.13;3.53;;;;;28.10;94385.00;;;;7384159;19;20155;-80
2023/08/15 12:20:04;;;;;;;5.45;3.00;;;;;28.50;94384.00;;;;7383558;19;20167;-82
2023/08/15 12:22:35;;;;;;;7.07;3.10;;;;;28.10;94388.00;;;;7385254;19;20155;-81
2023/08/15 12:25:10;;;;;;;4.70;3.20;;;;;28.80;94370.00;;;;7384060;19;20144;-83
2023/08/15 12:27:39;;;;;;;5.78;3.13;;;;;28.40;94384.00;;;;7382309;19;20189;-78
2023/08/15 12:30:14;;;;;;;6.10;3.25;;;;;28.50;94373.00;;;;7384810;19;20151;-82
2023/08/15 12:32:48;;;;;;;7.13;3.45;;;;;29.10;94379.00;;;;7382113;19;20171;-80
2023/08/15 12:35:31;;;;;;;8.73;3.55;;;;;28.30;94387.00;;;;7380443;19;20148;-82
2023/08/15 12:37:58;;;;;;;9.65;3.35;;;;;28.10;94385.00;;;;7385420;19;20140;-81
2023/08/15 12:40:32;;;;;;;6.78;3.33;;;;;27.60;94384.00;;;;7384921;19;20148;-78
2023/08/15 12:43:06;;;;;;;4.47;3.50;;;;;27.50;94391.00;;;;7383892;19;20143;-80
2023/08/15 12:45:34;;;;;;;7.20;3.70;;;;;27.20;94395.00;;;;7387865;19;20143;-82
2023/08/15 12:48:10;;;;;;;5.18;3.45;;;;;26.60;94403.00;;;;7385951;19;20163;-82
2023/08/15 12:50:39;;;;;;;5.22;3.50;;;;;26.90;94392.00;;;;7384908;19;20169;-82